sensor_id;sensor_type;location;lat;lon;timestamp;temperature;humidity
71668;DHT22;59504;54.806;9.640;2023-12-28T00:01:21;6.40;86.20
71668;DHT22;59504;54.806;9.640;2023-12-28T00:07:17;6.40;86.10
71668;DHT22;59504;54.806;9.640;2023-12-28T00:12:39;6.50;86.20
71668;DHT22;59504;54.806;9.640;2023-12-28T00:14:59;6.50;86.30
71668;DHT22;59504;54.806;9.640;2023-12-28T00:29:11;6.60;86.80
71668;DHT22;59504;54.806;9.640;2023-12-28T00:33:42;6.70;86.60
71668;DHT22;59504;54.806;9.640;2023-12-28T00:39:11;6.70;87.10
71668;DHT22;59504;54.806;9.640;2023-12-28T00:41:32;6.90;87.00
71668;DHT22;59504;54.806;9.640;2023-12-28T00:44:11;6.90;87.30
71668;DHT22;59504;54.806;9.640;2023-12-28T00:49:18;7.00;87.30
71668;DHT22;59504;54.806;9.640;2023-12-28T00:51:38;7.00;87.10
71668;DHT22;59504;54.806;9.640;2023-12-28T00:57:18;7.10;87.20
71668;DHT22;59504;54.806;9.640;2023-12-28T01:02:58;7.10;87.30
71668;DHT22;59504;54.806;9.640;2023-12-28T01:05:18;7.20;87.20
71668;DHT22;59504;54.806;9.640;2023-12-28T01:07:41;7.20;87.30
71668;DHT22;59504;54.806;9.640;2023-12-28T01:10:02;7.30;87.20
71668;DHT22;59504;54.806;9.640;2023-12-28T01:12:22;7.20;87.30
71668;DHT22;59504;54.806;9.640;2023-12-28T01:14:48;7.30;87.20
71668;DHT22;59504;54.806;9.640;2023-12-28T01:17:12;7.30;87.20
71668;DHT22;59504;54.806;9.640;2023-12-28T01:19:38;7.50;87.20
71668;DHT22;59504;54.806;9.640;2023-12-28T01:22:08;7.40;87.10
71668;DHT22;59504;54.806;9.640;2023-12-28T01:24:29;7.40;87.10
71668;DHT22;59504;54.806;9.640;2023-12-28T01:26:50;7.50;86.90
71668;DHT22;59504;54.806;9.640;2023-12-28T01:29:13;7.60;86.80
71668;DHT22;59504;54.806;9.640;2023-12-28T01:31:37;7.50;86.70
71668;DHT22;59504;54.806;9.640;2023-12-28T01:34:02;7.60;87.30
71668;DHT22;59504;54.806;9.640;2023-12-28T01:36:23;7.60;86.60
71668;DHT22;59504;54.806;9.640;2023-12-28T01:38:44;7.60;86.40
71668;DHT22;59504;54.806;9.640;2023-12-28T01:41:04;7.70;86.40
71668;DHT22;59504;54.806;9.640;2023-12-28T01:43:18;7.60;86.30
71668;DHT22;59504;54.806;9.640;2023-12-28T01:45:19;7.70;86.30
71668;DHT22;59504;54.806;9.640;2023-12-28T01:47:26;7.60;86.20
71668;DHT22;59504;54.806;9.640;2023-12-28T01:49:27;7.70;86.20
71668;DHT22;59504;54.806;9.640;2023-12-28T01:51:45;7.80;86.20
71668;DHT22;59504;54.806;9.640;2023-12-28T01:54:13;7.70;86.00
71668;DHT22;59504;54.806;9.640;2023-12-28T01:56:20;7.70;86.00
71668;DHT22;59504;54.806;9.640;2023-12-28T01:58:22;7.80;86.00
71668;DHT22;59504;54.806;9.640;2023-12-28T02:00:23;7.80;86.00
71668;DHT22;59504;54.806;9.640;2023-12-28T02:02:44;7.80;86.00
71668;DHT22;59504;54.806;9.640;2023-12-28T02:05:05;7.80;85.90
71668;DHT22;59504;54.806;9.640;2023-12-28T02:07:26;7.80;85.90
71668;DHT22;59504;54.806;9.640;2023-12-28T02:09:50;7.90;86.00
71668;DHT22;59504;54.806;9.640;2023-12-28T02:12:11;7.80;85.90
71668;DHT22;59504;54.806;9.640;2023-12-28T02:14:31;7.90;85.90
71668;DHT22;59504;54.806;9.640;2023-12-28T02:16:50;7.90;85.80
71668;DHT22;59504;54.806;9.640;2023-12-28T02:19:37;7.90;85.70
71668;DHT22;59504;54.806;9.640;2023-12-28T02:22:00;7.90;85.70
71668;DHT22;59504;54.806;9.640;2023-12-28T02:24:26;7.90;85.60
71668;DHT22;59504;54.806;9.640;2023-12-28T02:26:59;7.90;85.50
71668;DHT22;59504;54.806;9.640;2023-12-28T02:29:28;7.90;85.40
71668;DHT22;59504;54.806;9.640;2023-12-28T02:31:53;7.80;85.30
71668;DHT22;59504;54.806;9.640;2023-12-28T02:34:19;7.90;85.30
71668;DHT22;59504;54.806;9.640;2023-12-28T02:36:41;8.00;85.40
71668;DHT22;59504;54.806;9.640;2023-12-28T02:39:04;8.00;85.30
71668;DHT22;59504;54.806;9.640;2023-12-28T02:41:26;8.00;85.30
71668;DHT22;59504;54.806;9.640;2023-12-28T02:43:47;8.10;85.40
71668;DHT22;59504;54.806;9.640;2023-12-28T02:45:51;8.00;85.30
71668;DHT22;59504;54.806;9.640;2023-12-28T02:47:57;8.00;85.20
71668;DHT22;59504;54.806;9.640;2023-12-28T02:49:57;8.00;85.10
71668;DHT22;59504;54.806;9.640;2023-12-28T02:52:12;8.10;85.20
71668;DHT22;59504;54.806;9.640;2023-12-28T02:54:18;8.10;85.20
71668;DHT22;59504;54.806;9.640;2023-12-28T02:56:50;8.00;85.10
71668;DHT22;59504;54.806;9.640;2023-12-28T02:58:51;8.10;85.20
71668;DHT22;59504;54.806;9.640;2023-12-28T03:01:12;8.00;85.10
71668;DHT22;59504;54.806;9.640;2023-12-28T03:03:32;8.00;85.00
71668;DHT22;59504;54.806;9.640;2023-12-28T03:05:53;8.00;85.00
71668;DHT22;59504;54.806;9.640;2023-12-28T03:08:14;8.10;85.00
71668;DHT22;59504;54.806;9.640;2023-12-28T03:10:15;8.10;85.00
71668;DHT22;59504;54.806;9.640;2023-12-28T03:12:36;8.10;84.90
71668;DHT22;59504;54.806;9.640;2023-12-28T03:14:57;8.10;84.90
71668;DHT22;59504;54.806;9.640;2023-12-28T03:17:17;8.10;84.80
71668;DHT22;59504;54.806;9.640;2023-12-28T03:19:38;8.20;84.80
71668;DHT22;59504;54.806;9.640;2023-12-28T03:22:14;8.20;84.80
71668;DHT22;59504;54.806;9.640;2023-12-28T03:24:38;8.20;84.70
71668;DHT22;59504;54.806;9.640;2023-12-28T03:26:59;8.20;84.70
71668;DHT22;59504;54.806;9.640;2023-12-28T03:29:17;8.20;84.70
71668;DHT22;59504;54.806;9.640;2023-12-28T03:33:34;8.20;84.60
71668;DHT22;59504;54.806;9.640;2023-12-28T03:35:55;8.10;84.60
71668;DHT22;59504;54.806;9.640;2023-12-28T03:38:16;8.20;84.50
71668;DHT22;59504;54.806;9.640;2023-12-28T03:40:36;8.20;85.20
71668;DHT22;59504;54.806;9.640;2023-12-28T03:42:57;8.20;84.50
71668;DHT22;59504;54.806;9.640;2023-12-28T03:45:17;8.30;84.60
71668;DHT22;59504;54.806;9.640;2023-12-28T03:47:38;8.30;84.60
71668;DHT22;59504;54.806;9.640;2023-12-28T03:49:58;8.20;85.20
71668;DHT22;59504;54.806;9.640;2023-12-28T03:52:19;8.30;84.60
71668;DHT22;59504;54.806;9.640;2023-12-28T03:54:20;8.20;84.40
71668;DHT22;59504;54.806;9.640;2023-12-28T03:56:24;8.30;84.40
71668;DHT22;59504;54.806;9.640;2023-12-28T03:58:30;8.30;84.40
71668;DHT22;59504;54.806;9.640;2023-12-28T04:00:31;8.30;84.30
71668;DHT22;59504;54.806;9.640;2023-12-28T04:02:31;8.30;84.30
71668;DHT22;59504;54.806;9.640;2023-12-28T04:04:52;8.30;84.30
71668;DHT22;59504;54.806;9.640;2023-12-28T04:07:05;8.40;84.20
71668;DHT22;59504;54.806;9.640;2023-12-28T04:09:27;8.30;84.10
71668;DHT22;59504;54.806;9.640;2023-12-28T04:11:54;8.30;84.10
71668;DHT22;59504;54.806;9.640;2023-12-28T04:14:22;8.30;84.10
71668;DHT22;59504;54.806;9.640;2023-12-28T04:16:42;8.40;84.00
71668;DHT22;59504;54.806;9.640;2023-12-28T04:18:48;8.30;83.80
71668;DHT22;59504;54.806;9.640;2023-12-28T04:23:40;8.30;83.80
71668;DHT22;59504;54.806;9.640;2023-12-28T04:26:01;8.40;83.80
71668;DHT22;59504;54.806;9.640;2023-12-28T04:28:22;8.20;83.50
71668;DHT22;59504;54.806;9.640;2023-12-28T04:30:43;8.30;83.60
71668;DHT22;59504;54.806;9.640;2023-12-28T04:33:09;8.20;83.50
71668;DHT22;59504;54.806;9.640;2023-12-28T04:35:37;8.30;83.50
71668;DHT22;59504;54.806;9.640;2023-12-28T04:37:58;8.20;83.40
71668;DHT22;59504;54.806;9.640;2023-12-28T04:40:21;8.30;83.50
71668;DHT22;59504;54.806;9.640;2023-12-28T04:42:44;8.20;83.30
71668;DHT22;59504;54.806;9.640;2023-12-28T04:45:14;8.30;83.40
71668;DHT22;59504;54.806;9.640;2023-12-28T04:47:36;8.20;83.30
71668;DHT22;59504;54.806;9.640;2023-12-28T04:52:36;8.30;83.30
71668;DHT22;59504;54.806;9.640;2023-12-28T04:55:02;8.20;83.30
71668;DHT22;59504;54.806;9.640;2023-12-28T04:57:30;8.20;83.20
71668;DHT22;59504;54.806;9.640;2023-12-28T04:59:51;8.10;83.30
71668;DHT22;59504;54.806;9.640;2023-12-28T05:02:12;8.20;83.30
71668;DHT22;59504;54.806;9.640;2023-12-28T05:04:38;8.20;83.60
71668;DHT22;59504;54.806;9.640;2023-12-28T05:07:02;8.20;83.60
71668;DHT22;59504;54.806;9.640;2023-12-28T05:09:22;8.20;83.70
71668;DHT22;59504;54.806;9.640;2023-12-28T05:11:43;8.10;83.80
71668;DHT22;59504;54.806;9.640;2023-12-28T05:14:04;8.10;83.90
71668;DHT22;59504;54.806;9.640;2023-12-28T05:16:38;8.20;84.10
71668;DHT22;59504;54.806;9.640;2023-12-28T05:18:45;8.20;84.00
71668;DHT22;59504;54.806;9.640;2023-12-28T05:20:48;8.30;84.10
71668;DHT22;59504;54.806;9.640;2023-12-28T05:22:49;8.20;83.90
71668;DHT22;59504;54.806;9.640;2023-12-28T05:27:04;8.30;84.00
71668;DHT22;59504;54.806;9.640;2023-12-28T05:29:04;8.30;84.10
71668;DHT22;59504;54.806;9.640;2023-12-28T05:31:25;8.40;84.00
71668;DHT22;59504;54.806;9.640;2023-12-28T05:33:26;8.40;84.00
71668;DHT22;59504;54.806;9.640;2023-12-28T05:35:48;8.40;84.00
71668;DHT22;59504;54.806;9.640;2023-12-28T05:37:51;8.40;83.90
71668;DHT22;59504;54.806;9.640;2023-12-28T05:40:11;8.40;83.90
71668;DHT22;59504;54.806;9.640;2023-12-28T05:42:38;8.40;83.90
71668;DHT22;59504;54.806;9.640;2023-12-28T05:44:58;8.50;83.90
71668;DHT22;59504;54.806;9.640;2023-12-28T05:46:59;8.60;83.90
71668;DHT22;59504;54.806;9.640;2023-12-28T05:49:20;8.60;83.80
71668;DHT22;59504;54.806;9.640;2023-12-28T05:51:41;8.60;83.80
71668;DHT22;59504;54.806;9.640;2023-12-28T05:54:01;8.60;83.70
71668;DHT22;59504;54.806;9.640;2023-12-28T05:56:22;8.50;83.70
71668;DHT22;59504;54.806;9.640;2023-12-28T05:58:48;8.60;83.60
71668;DHT22;59504;54.806;9.640;2023-12-28T06:01:14;8.60;83.50
71668;DHT22;59504;54.806;9.640;2023-12-28T06:03:41;8.60;83.30
71668;DHT22;59504;54.806;9.640;2023-12-28T06:06:01;8.60;83.40
71668;DHT22;59504;54.806;9.640;2023-12-28T06:08:22;8.60;83.40
71668;DHT22;59504;54.806;9.640;2023-12-28T06:10:43;8.70;83.40
71668;DHT22;59504;54.806;9.640;2023-12-28T06:13:06;8.70;83.30
71668;DHT22;59504;54.806;9.640;2023-12-28T06:15:27;8.70;83.20
71668;DHT22;59504;54.806;9.640;2023-12-28T06:17:48;8.80;83.20
71668;DHT22;59504;54.806;9.640;2023-12-28T06:20:09;8.80;83.20
71668;DHT22;59504;54.806;9.640;2023-12-28T06:22:29;8.70;83.10
71668;DHT22;59504;54.806;9.640;2023-12-28T06:24:56;8.80;83.00
71668;DHT22;59504;54.806;9.640;2023-12-28T06:26:57;8.80;82.90
71668;DHT22;59504;54.806;9.640;2023-12-28T06:28:58;8.80;82.80
71668;DHT22;59504;54.806;9.640;2023-12-28T06:30:59;8.90;82.80
71668;DHT22;59504;54.806;9.640;2023-12-28T06:33:24;8.80;82.50
71668;DHT22;59504;54.806;9.640;2023-12-28T06:35:37;8.90;82.40
71668;DHT22;59504;54.806;9.640;2023-12-28T06:37:58;8.90;82.00
71668;DHT22;59504;54.806;9.640;2023-12-28T06:40:18;8.80;82.30
71668;DHT22;59504;54.806;9.640;2023-12-28T06:42:41;8.90;82.30
71668;DHT22;59504;54.806;9.640;2023-12-28T06:45:17;8.90;82.00
71668;DHT22;59504;54.806;9.640;2023-12-28T06:47:48;8.90;81.90
71668;DHT22;59504;54.806;9.640;2023-12-28T06:50:08;9.10;81.90
71668;DHT22;59504;54.806;9.640;2023-12-28T06:52:29;9.00;81.70
71668;DHT22;59504;54.806;9.640;2023-12-28T06:54:51;9.10;81.60
71668;DHT22;59504;54.806;9.640;2023-12-28T06:59:54;9.00;81.60
71668;DHT22;59504;54.806;9.640;2023-12-28T07:02:14;9.10;81.30
71668;DHT22;59504;54.806;9.640;2023-12-28T07:04:35;9.10;81.30
71668;DHT22;59504;54.806;9.640;2023-12-28T07:06:45;9.20;81.10
71668;DHT22;59504;54.806;9.640;2023-12-28T07:08:49;9.10;80.90
71668;DHT22;59504;54.806;9.640;2023-12-28T07:11:10;9.10;80.90
71668;DHT22;59504;54.806;9.640;2023-12-28T07:13:44;9.10;81.00
71668;DHT22;59504;54.806;9.640;2023-12-28T07:16:04;9.10;80.90
71668;DHT22;59504;54.806;9.640;2023-12-28T07:18:27;9.10;80.80
71668;DHT22;59504;54.806;9.640;2023-12-28T07:20:48;9.10;80.60
71668;DHT22;59504;54.806;9.640;2023-12-28T07:23:09;9.20;80.80
71668;DHT22;59504;54.806;9.640;2023-12-28T07:25:29;9.10;80.60
71668;DHT22;59504;54.806;9.640;2023-12-28T07:27:50;9.20;80.80
71668;DHT22;59504;54.806;9.640;2023-12-28T07:30:18;9.20;80.70
71668;DHT22;59504;54.806;9.640;2023-12-28T07:32:42;9.20;80.70
71668;DHT22;59504;54.806;9.640;2023-12-28T07:35:03;9.20;80.60
71668;DHT22;59504;54.806;9.640;2023-12-28T07:37:24;9.20;80.60
71668;DHT22;59504;54.806;9.640;2023-12-28T07:39:28;9.20;80.50
71668;DHT22;59504;54.806;9.640;2023-12-28T07:41:28;9.20;80.50
71668;DHT22;59504;54.806;9.640;2023-12-28T07:43:30;9.30;80.40
71668;DHT22;59504;54.806;9.640;2023-12-28T07:45:53;9.20;80.40
71668;DHT22;59504;54.806;9.640;2023-12-28T07:47:54;9.30;80.40
71668;DHT22;59504;54.806;9.640;2023-12-28T07:49:55;9.30;80.40
71668;DHT22;59504;54.806;9.640;2023-12-28T07:52:06;9.30;80.00
71668;DHT22;59504;54.806;9.640;2023-12-28T08:00:05;9.40;80.00
71668;DHT22;59504;54.806;9.640;2023-12-28T08:02:35;9.40;80.00
71668;DHT22;59504;54.806;9.640;2023-12-28T08:05:16;9.30;79.80
71668;DHT22;59504;54.806;9.640;2023-12-28T08:07:45;9.40;79.70
71668;DHT22;59504;54.806;9.640;2023-12-28T08:10:13;9.40;79.60
71668;DHT22;59504;54.806;9.640;2023-12-28T08:12:37;9.40;79.60
71668;DHT22;59504;54.806;9.640;2023-12-28T08:15:03;9.40;79.70
71668;DHT22;59504;54.806;9.640;2023-12-28T08:17:33;9.50;79.70
71668;DHT22;59504;54.806;9.640;2023-12-28T08:19:56;9.50;79.70
71668;DHT22;59504;54.806;9.640;2023-12-28T08:22:36;9.50;79.60
71668;DHT22;59504;54.806;9.640;2023-12-28T08:25:16;9.50;79.50
71668;DHT22;59504;54.806;9.640;2023-12-28T08:27:39;9.60;79.60
71668;DHT22;59504;54.806;9.640;2023-12-28T08:30:06;9.50;79.30
71668;DHT22;59504;54.806;9.640;2023-12-28T08:32:35;9.50;79.20
71668;DHT22;59504;54.806;9.640;2023-12-28T08:35:12;9.50;79.20
71668;DHT22;59504;54.806;9.640;2023-12-28T08:37:33;9.50;79.20
71668;DHT22;59504;54.806;9.640;2023-12-28T08:39:54;9.60;79.20
71668;DHT22;59504;54.806;9.640;2023-12-28T08:42:15;9.50;79.20
71668;DHT22;59504;54.806;9.640;2023-12-28T08:44:40;9.60;79.20
71668;DHT22;59504;54.806;9.640;2023-12-28T08:47:19;9.50;79.80
71668;DHT22;59504;54.806;9.640;2023-12-28T08:49:20;9.60;79.10
71668;DHT22;59504;54.806;9.640;2023-12-28T08:51:37;9.60;79.00
71668;DHT22;59504;54.806;9.640;2023-12-28T08:53:54;9.60;78.90
71668;DHT22;59504;54.806;9.640;2023-12-28T08:56:21;9.60;79.00
71668;DHT22;59504;54.806;9.640;2023-12-28T08:58:45;9.60;78.90
71668;DHT22;59504;54.806;9.640;2023-12-28T09:01:23;9.60;79.10
71668;DHT22;59504;54.806;9.640;2023-12-28T09:03:59;9.60;78.90
71668;DHT22;59504;54.806;9.640;2023-12-28T09:06:27;9.60;78.90
71668;DHT22;59504;54.806;9.640;2023-12-28T09:08:51;9.70;79.00
71668;DHT22;59504;54.806;9.640;2023-12-28T09:11:18;9.60;78.70
71668;DHT22;59504;54.806;9.640;2023-12-28T09:13:52;9.70;78.80
71668;DHT22;59504;54.806;9.640;2023-12-28T09:16:21;9.60;78.50
71668;DHT22;59504;54.806;9.640;2023-12-28T09:18:48;9.60;78.50
71668;DHT22;59504;54.806;9.640;2023-12-28T09:21:12;9.70;78.60
71668;DHT22;59504;54.806;9.640;2023-12-28T09:23:24;9.70;78.60
71668;DHT22;59504;54.806;9.640;2023-12-28T09:25:26;9.80;78.70
71668;DHT22;59504;54.806;9.640;2023-12-28T09:28:02;9.70;78.50
71668;DHT22;59504;54.806;9.640;2023-12-28T09:30:25;9.70;78.50
71668;DHT22;59504;54.806;9.640;2023-12-28T09:32:52;9.70;78.40
71668;DHT22;59504;54.806;9.640;2023-12-28T09:38:24;9.60;78.60
71668;DHT22;59504;54.806;9.640;2023-12-28T09:40:51;9.60;78.50
71668;DHT22;59504;54.806;9.640;2023-12-28T09:43:14;9.70;78.50
71668;DHT22;59504;54.806;9.640;2023-12-28T09:45:51;9.60;78.40
71668;DHT22;59504;54.806;9.640;2023-12-28T09:48:19;9.70;78.60
71668;DHT22;59504;54.806;9.640;2023-12-28T09:50:44;9.70;78.60
71668;DHT22;59504;54.806;9.640;2023-12-28T09:52:45;9.50;78.20
71668;DHT22;59504;54.806;9.640;2023-12-28T09:55:03;9.60;78.30
71668;DHT22;59504;54.806;9.640;2023-12-28T09:57:10;9.60;78.50
71668;DHT22;59504;54.806;9.640;2023-12-28T10:00:01;9.60;78.30
71668;DHT22;59504;54.806;9.640;2023-12-28T10:04:13;9.60;78.30
71668;DHT22;59504;54.806;9.640;2023-12-28T10:06:35;9.60;78.30
71668;DHT22;59504;54.806;9.640;2023-12-28T10:08:56;9.60;78.80
71668;DHT22;59504;54.806;9.640;2023-12-28T10:11:17;9.60;78.90
71668;DHT22;59504;54.806;9.640;2023-12-28T10:13:40;9.50;79.00
71668;DHT22;59504;54.806;9.640;2023-12-28T10:16:24;9.50;79.20
71668;DHT22;59504;54.806;9.640;2023-12-28T10:18:51;9.50;79.20
71668;DHT22;59504;54.806;9.640;2023-12-28T10:21:11;9.40;79.40
71668;DHT22;59504;54.806;9.640;2023-12-28T10:23:12;9.50;80.10
71668;DHT22;59504;54.806;9.640;2023-12-28T10:25:16;9.50;80.50
71668;DHT22;59504;54.806;9.640;2023-12-28T10:27:22;9.50;80.60
71668;DHT22;59504;54.806;9.640;2023-12-28T10:29:43;9.50;80.80
71668;DHT22;59504;54.806;9.640;2023-12-28T10:32:04;9.50;80.80
71668;DHT22;59504;54.806;9.640;2023-12-28T10:34:27;9.50;81.10
71668;DHT22;59504;54.806;9.640;2023-12-28T10:36:36;9.50;80.90
71668;DHT22;59504;54.806;9.640;2023-12-28T10:39:00;9.50;81.00
71668;DHT22;59504;54.806;9.640;2023-12-28T10:41:12;9.40;81.00
71668;DHT22;59504;54.806;9.640;2023-12-28T10:43:16;9.50;81.10
71668;DHT22;59504;54.806;9.640;2023-12-28T10:45:21;9.40;81.30
71668;DHT22;59504;54.806;9.640;2023-12-28T10:47:27;9.50;81.40
71668;DHT22;59504;54.806;9.640;2023-12-28T10:52:21;9.40;81.90
71668;DHT22;59504;54.806;9.640;2023-12-28T11:05:30;9.40;82.20
71668;DHT22;59504;54.806;9.640;2023-12-28T11:07:51;9.40;82.10
71668;DHT22;59504;54.806;9.640;2023-12-28T11:10:40;9.40;81.80
71668;DHT22;59504;54.806;9.640;2023-12-28T11:13:09;9.40;81.60
71668;DHT22;59504;54.806;9.640;2023-12-28T11:18:46;9.40;81.70
71668;DHT22;59504;54.806;9.640;2023-12-28T11:21:30;9.40;81.80
71668;DHT22;59504;54.806;9.640;2023-12-28T11:23:52;9.40;82.10
71668;DHT22;59504;54.806;9.640;2023-12-28T11:26:16;9.40;82.20
71668;DHT22;59504;54.806;9.640;2023-12-28T11:28:45;9.40;82.20
71668;DHT22;59504;54.806;9.640;2023-12-28T11:30:57;9.40;82.30
71668;DHT22;59504;54.806;9.640;2023-12-28T11:32:58;9.40;82.30
71668;DHT22;59504;54.806;9.640;2023-12-28T11:34:59;9.50;82.30
71668;DHT22;59504;54.806;9.640;2023-12-28T11:37:02;9.50;82.20
71668;DHT22;59504;54.806;9.640;2023-12-28T11:39:06;9.40;82.10
71668;DHT22;59504;54.806;9.640;2023-12-28T11:41:15;9.40;82.20
71668;DHT22;59504;54.806;9.640;2023-12-28T11:43:19;9.50;82.30
71668;DHT22;59504;54.806;9.640;2023-12-28T11:45:21;9.40;82.30
71668;DHT22;59504;54.806;9.640;2023-12-28T11:47:26;9.40;82.20
71668;DHT22;59504;54.806;9.640;2023-12-28T11:49:32;9.40;82.20
71668;DHT22;59504;54.806;9.640;2023-12-28T11:51:37;9.40;82.10
71668;DHT22;59504;54.806;9.640;2023-12-28T11:53:44;9.40;82.00
71668;DHT22;59504;54.806;9.640;2023-12-28T11:55:51;9.50;82.20
71668;DHT22;59504;54.806;9.640;2023-12-28T11:57:51;9.50;82.10
71668;DHT22;59504;54.806;9.640;2023-12-28T11:59:53;9.50;82.30
71668;DHT22;59504;54.806;9.640;2023-12-28T12:11:07;9.40;82.10
71668;DHT22;59504;54.806;9.640;2023-12-28T12:15:32;9.40;82.10
71668;DHT22;59504;54.806;9.640;2023-12-28T12:17:39;9.40;82.20
71668;DHT22;59504;54.806;9.640;2023-12-28T12:20:00;9.30;82.30
71668;DHT22;59504;54.806;9.640;2023-12-28T12:22:23;9.40;82.40
71668;DHT22;59504;54.806;9.640;2023-12-28T12:24:44;9.40;82.50
71668;DHT22;59504;54.806;9.640;2023-12-28T12:27:04;9.30;82.10
71668;DHT22;59504;54.806;9.640;2023-12-28T12:29:25;9.30;82.40
71668;DHT22;59504;54.806;9.640;2023-12-28T12:33:54;9.30;82.50
71668;DHT22;59504;54.806;9.640;2023-12-28T12:36:10;9.40;82.60
71668;DHT22;59504;54.806;9.640;2023-12-28T12:38:11;9.40;82.60
71668;DHT22;59504;54.806;9.640;2023-12-28T12:40:11;9.40;82.70
71668;DHT22;59504;54.806;9.640;2023-12-28T12:42:15;9.40;82.50
71668;DHT22;59504;54.806;9.640;2023-12-28T12:47:22;9.30;82.20
71668;DHT22;59504;54.806;9.640;2023-12-28T12:52:10;9.40;82.40
71668;DHT22;59504;54.806;9.640;2023-12-28T12:54:18;9.40;82.30
71668;DHT22;59504;54.806;9.640;2023-12-28T12:56:19;9.40;82.20
71668;DHT22;59504;54.806;9.640;2023-12-28T12:58:20;9.50;82.20
71668;DHT22;59504;54.806;9.640;2023-12-28T13:00:22;9.40;82.10
71668;DHT22;59504;54.806;9.640;2023-12-28T13:02:23;9.40;82.10
71668;DHT22;59504;54.806;9.640;2023-12-28T13:04:29;9.40;82.60
71668;DHT22;59504;54.806;9.640;2023-12-28T13:13:06;9.40;82.10
71668;DHT22;59504;54.806;9.640;2023-12-28T13:15:07;9.40;82.00
71668;DHT22;59504;54.806;9.640;2023-12-28T13:17:10;9.40;81.90
71668;DHT22;59504;54.806;9.640;2023-12-28T13:26:30;9.30;81.10
71668;DHT22;59504;54.806;9.640;2023-12-28T13:28:30;9.40;81.10
71668;DHT22;59504;54.806;9.640;2023-12-28T13:30:31;9.30;81.10
71668;DHT22;59504;54.806;9.640;2023-12-28T13:32:32;9.30;81.10
71668;DHT22;59504;54.806;9.640;2023-12-28T13:34:36;9.30;81.10
71668;DHT22;59504;54.806;9.640;2023-12-28T13:36:42;9.40;81.20
71668;DHT22;59504;54.806;9.640;2023-12-28T13:38:52;9.40;81.20
71668;DHT22;59504;54.806;9.640;2023-12-28T13:41:13;9.30;81.30
71668;DHT22;59504;54.806;9.640;2023-12-28T13:43:13;9.40;81.30
71668;DHT22;59504;54.806;9.640;2023-12-28T13:45:16;9.40;81.40
71668;DHT22;59504;54.806;9.640;2023-12-28T13:47:37;9.30;81.20
71668;DHT22;59504;54.806;9.640;2023-12-28T13:49:58;9.30;81.40
71668;DHT22;59504;54.806;9.640;2023-12-28T13:52:21;9.30;81.60
71668;DHT22;59504;54.806;9.640;2023-12-28T13:54:41;9.30;81.50
71668;DHT22;59504;54.806;9.640;2023-12-28T13:57:02;9.20;81.60
71668;DHT22;59504;54.806;9.640;2023-12-28T13:59:03;9.20;81.90
71668;DHT22;59504;54.806;9.640;2023-12-28T14:01:09;9.20;82.00
71668;DHT22;59504;54.806;9.640;2023-12-28T14:03:13;9.20;82.10
71668;DHT22;59504;54.806;9.640;2023-12-28T14:05:17;9.20;82.30
71668;DHT22;59504;54.806;9.640;2023-12-28T14:07:17;9.20;82.30
71668;DHT22;59504;54.806;9.640;2023-12-28T14:09:36;9.20;82.30
71668;DHT22;59504;54.806;9.640;2023-12-28T14:11:59;9.20;82.60
71668;DHT22;59504;54.806;9.640;2023-12-28T14:14:35;9.20;82.80
71668;DHT22;59504;54.806;9.640;2023-12-28T14:16:47;9.20;82.80
71668;DHT22;59504;54.806;9.640;2023-12-28T14:18:56;9.00;82.80
71668;DHT22;59504;54.806;9.640;2023-12-28T14:20:57;9.20;83.20
71668;DHT22;59504;54.806;9.640;2023-12-28T14:22:57;9.20;83.10
71668;DHT22;59504;54.806;9.640;2023-12-28T14:24:58;9.20;83.20
71668;DHT22;59504;54.806;9.640;2023-12-28T14:26:59;9.10;83.30
71668;DHT22;59504;54.806;9.640;2023-12-28T14:29:03;9.20;83.60
71668;DHT22;59504;54.806;9.640;2023-12-28T14:31:12;9.20;83.60
71668;DHT22;59504;54.806;9.640;2023-12-28T14:33:12;9.20;83.80
71668;DHT22;59504;54.806;9.640;2023-12-28T14:35:19;9.20;83.80
71668;DHT22;59504;54.806;9.640;2023-12-28T14:37:20;9.20;83.80
71668;DHT22;59504;54.806;9.640;2023-12-28T14:39:22;9.20;83.80
71668;DHT22;59504;54.806;9.640;2023-12-28T14:41:23;9.20;83.80
71668;DHT22;59504;54.806;9.640;2023-12-28T14:43:23;9.20;83.80
71668;DHT22;59504;54.806;9.640;2023-12-28T14:45:28;9.30;83.90
71668;DHT22;59504;54.806;9.640;2023-12-28T14:47:37;9.20;83.90
71668;DHT22;59504;54.806;9.640;2023-12-28T14:49:41;9.20;83.90
71668;DHT22;59504;54.806;9.640;2023-12-28T14:52:04;9.20;84.00
71668;DHT22;59504;54.806;9.640;2023-12-28T14:54:05;9.20;84.00
71668;DHT22;59504;54.806;9.640;2023-12-28T14:56:10;9.20;84.10
71668;DHT22;59504;54.806;9.640;2023-12-28T14:58:12;9.20;83.90
71668;DHT22;59504;54.806;9.640;2023-12-28T15:00:15;9.20;83.90
71668;DHT22;59504;54.806;9.640;2023-12-28T15:02:16;9.20;83.70
71668;DHT22;59504;54.806;9.640;2023-12-28T15:04:16;9.30;84.00
71668;DHT22;59504;54.806;9.640;2023-12-28T15:06:17;9.20;83.90
71668;DHT22;59504;54.806;9.640;2023-12-28T15:08:18;9.20;83.90
71668;DHT22;59504;54.806;9.640;2023-12-28T15:10:19;9.20;83.80
71668;DHT22;59504;54.806;9.640;2023-12-28T15:12:25;9.20;83.90
71668;DHT22;59504;54.806;9.640;2023-12-28T15:14:26;9.20;83.90
71668;DHT22;59504;54.806;9.640;2023-12-28T15:16:34;9.20;83.80
71668;DHT22;59504;54.806;9.640;2023-12-28T15:18:55;9.20;83.90
71668;DHT22;59504;54.806;9.640;2023-12-28T15:20:59;9.20;83.70
71668;DHT22;59504;54.806;9.640;2023-12-28T15:23:20;9.20;84.10
71668;DHT22;59504;54.806;9.640;2023-12-28T15:25:56;9.20;83.70
71668;DHT22;59504;54.806;9.640;2023-12-28T15:28:17;9.20;84.40
71668;DHT22;59504;54.806;9.640;2023-12-28T15:30:38;9.20;83.60
71668;DHT22;59504;54.806;9.640;2023-12-28T15:32:59;9.30;83.70
71668;DHT22;59504;54.806;9.640;2023-12-28T15:35:20;9.30;83.70
71668;DHT22;59504;54.806;9.640;2023-12-28T15:40:25;9.20;83.50
71668;DHT22;59504;54.806;9.640;2023-12-28T15:42:28;9.20;83.40
71668;DHT22;59504;54.806;9.640;2023-12-28T15:44:31;9.30;83.50
71668;DHT22;59504;54.806;9.640;2023-12-28T15:46:32;9.30;83.50
71668;DHT22;59504;54.806;9.640;2023-12-28T15:48:33;9.30;83.50
71668;DHT22;59504;54.806;9.640;2023-12-28T15:50:34;9.30;83.50
71668;DHT22;59504;54.806;9.640;2023-12-28T15:52:39;9.30;83.40
71668;DHT22;59504;54.806;9.640;2023-12-28T15:54:40;9.30;83.30
71668;DHT22;59504;54.806;9.640;2023-12-28T15:56:41;9.30;83.30
71668;DHT22;59504;54.806;9.640;2023-12-28T15:58:42;9.30;83.20
71668;DHT22;59504;54.806;9.640;2023-12-28T16:00:46;9.40;83.30
71668;DHT22;59504;54.806;9.640;2023-12-28T16:02:47;9.40;83.20
71668;DHT22;59504;54.806;9.640;2023-12-28T16:05:06;9.40;83.30
71668;DHT22;59504;54.806;9.640;2023-12-28T16:07:12;9.30;83.30
71668;DHT22;59504;54.806;9.640;2023-12-28T16:09:12;9.30;83.00
71668;DHT22;59504;54.806;9.640;2023-12-28T16:11:33;9.40;83.10
71668;DHT22;59504;54.806;9.640;2023-12-28T16:13:34;9.50;83.00
71668;DHT22;59504;54.806;9.640;2023-12-28T16:15:57;9.30;82.90
71668;DHT22;59504;54.806;9.640;2023-12-28T16:18:17;9.30;82.80
71668;DHT22;59504;54.806;9.640;2023-12-28T16:20:38;9.30;82.80
71668;DHT22;59504;54.806;9.640;2023-12-28T16:22:59;9.30;82.80